sensor_id;sensor_type;location;lat;lon;timestamp;P1;durP1;ratioP1;P2;durP2;ratioP2
17091;SDS011;8661;45.700;4.880;2024-03-02T00:01:16;4.53;;;2.53;;
17091;SDS011;8661;45.700;4.880;2024-03-02T00:03:43;4.70;;;2.40;;
17091;SDS011;8661;45.700;4.880;2024-03-02T00:06:10;4.07;;;2.30;;
17091;SDS011;8661;45.700;4.880;2024-03-02T00:08:37;4.07;;;2.67;;
17091;SDS011;8661;45.700;4.880;2024-03-02T00:11:04;4.63;;;2.53;;
17091;SDS011;8661;45.700;4.880;2024-03-02T00:13:31;4.73;;;2.10;;
17091;SDS011;8661;45.700;4.880;2024-03-02T00:15:59;4.27;;;2.30;;
17091;SDS011;8661;45.700;4.880;2024-03-02T00:18:30;4.27;;;2.80;;
17091;SDS011;8661;45.700;4.880;2024-03-02T00:20:58;4.00;;;2.30;;
17091;SDS011;8661;45.700;4.880;2024-03-02T00:23:28;3.30;;;2.70;;
17091;SDS011;8661;45.700;4.880;2024-03-02T00:25:57;4.40;;;2.80;;
17091;SDS011;8661;45.700;4.880;2024-03-02T00:28:25;4.00;;;2.90;;
17091;SDS011;8661;45.700;4.880;2024-03-02T00:30:57;4.17;;;2.70;;
17091;SDS011;8661;45.700;4.880;2024-03-02T00:33:30;5.30;;;2.80;;
17091;SDS011;8661;45.700;4.880;2024-03-02T00:35:58;4.47;;;2.90;;
17091;SDS011;8661;45.700;4.880;2024-03-02T00:38:26;4.27;;;2.60;;
17091;SDS011;8661;45.700;4.880;2024-03-02T00:40:53;5.70;;;2.70;;
17091;SDS011;8661;45.700;4.880;2024-03-02T00:46:14;4.00;;;2.67;;
17091;SDS011;8661;45.700;4.880;2024-03-02T00:48:48;4.43;;;2.97;;
17091;SDS011;8661;45.700;4.880;2024-03-02T00:51:20;4.27;;;2.80;;
17091;SDS011;8661;45.700;4.880;2024-03-02T00:53:48;4.43;;;2.60;;
17091;SDS011;8661;45.700;4.880;2024-03-02T00:56:16;3.27;;;2.47;;
17091;SDS011;8661;45.700;4.880;2024-03-02T00:58:43;4.13;;;2.73;;
17091;SDS011;8661;45.700;4.880;2024-03-02T01:01:10;3.83;;;2.73;;
17091;SDS011;8661;45.700;4.880;2024-03-02T01:03:37;3.50;;;2.30;;
17091;SDS011;8661;45.700;4.880;2024-03-02T01:06:05;6.90;;;3.10;;
17091;SDS011;8661;45.700;4.880;2024-03-02T01:08:33;4.20;;;2.70;;
17091;SDS011;8661;45.700;4.880;2024-03-02T01:11:00;4.80;;;2.83;;
17091;SDS011;8661;45.700;4.880;2024-03-02T01:13:27;2.90;;;2.60;;
17091;SDS011;8661;45.700;4.880;2024-03-02T01:15:54;4.20;;;2.80;;
17091;SDS011;8661;45.700;4.880;2024-03-02T01:18:21;3.50;;;2.70;;
17091;SDS011;8661;45.700;4.880;2024-03-02T01:20:47;4.93;;;2.77;;
17091;SDS011;8661;45.700;4.880;2024-03-02T01:23:17;4.03;;;2.70;;
17091;SDS011;8661;45.700;4.880;2024-03-02T01:25:46;3.70;;;2.70;;
17091;SDS011;8661;45.700;4.880;2024-03-02T01:28:13;4.07;;;2.77;;
17091;SDS011;8661;45.700;4.880;2024-03-02T01:30:40;7.20;;;2.80;;
17091;SDS011;8661;45.700;4.880;2024-03-02T01:33:07;4.40;;;2.97;;
17091;SDS011;8661;45.700;4.880;2024-03-02T01:35:34;5.80;;;2.80;;
17091;SDS011;8661;45.700;4.880;2024-03-02T01:38:02;2.53;;;2.27;;
17091;SDS011;8661;45.700;4.880;2024-03-02T01:40:32;3.67;;;2.83;;
17091;SDS011;8661;45.700;4.880;2024-03-02T01:43:00;4.30;;;2.60;;
17091;SDS011;8661;45.700;4.880;2024-03-02T01:45:27;4.13;;;2.63;;
17091;SDS011;8661;45.700;4.880;2024-03-02T01:47:54;5.97;;;2.80;;
17091;SDS011;8661;45.700;4.880;2024-03-02T01:50:25;3.40;;;2.50;;
17091;SDS011;8661;45.700;4.880;2024-03-02T01:52:53;5.73;;;3.20;;
17091;SDS011;8661;45.700;4.880;2024-03-02T01:55:21;6.07;;;3.10;;
17091;SDS011;8661;45.700;4.880;2024-03-02T01:57:49;3.47;;;2.60;;
17091;SDS011;8661;45.700;4.880;2024-03-02T02:00:17;5.30;;;2.80;;
17091;SDS011;8661;45.700;4.880;2024-03-02T02:02:44;3.73;;;2.63;;
17091;SDS011;8661;45.700;4.880;2024-03-02T02:05:11;3.53;;;2.30;;
17091;SDS011;8661;45.700;4.880;2024-03-02T02:07:40;4.47;;;2.20;;
17091;SDS011;8661;45.700;4.880;2024-03-02T02:10:07;3.80;;;2.33;;
17091;SDS011;8661;45.700;4.880;2024-03-02T02:12:35;7.17;;;2.80;;
17091;SDS011;8661;45.700;4.880;2024-03-02T02:15:04;5.13;;;2.90;;
17091;SDS011;8661;45.700;4.880;2024-03-02T02:17:47;6.60;;;2.63;;
17091;SDS011;8661;45.700;4.880;2024-03-02T02:20:14;4.43;;;2.80;;
17091;SDS011;8661;45.700;4.880;2024-03-02T02:22:53;6.67;;;2.53;;
17091;SDS011;8661;45.700;4.880;2024-03-02T02:25:21;3.47;;;2.43;;
17091;SDS011;8661;45.700;4.880;2024-03-02T02:27:48;3.53;;;2.53;;
17091;SDS011;8661;45.700;4.880;2024-03-02T02:30:18;4.80;;;2.20;;
17091;SDS011;8661;45.700;4.880;2024-03-02T02:32:46;4.93;;;2.53;;
17091;SDS011;8661;45.700;4.880;2024-03-02T02:35:13;3.33;;;2.20;;
17091;SDS011;8661;45.700;4.880;2024-03-02T02:37:40;3.87;;;2.60;;
17091;SDS011;8661;45.700;4.880;2024-03-02T02:40:08;3.37;;;2.07;;
17091;SDS011;8661;45.700;4.880;2024-03-02T02:42:36;3.50;;;1.90;;
17091;SDS011;8661;45.700;4.880;2024-03-02T02:45:03;3.60;;;2.03;;
17091;SDS011;8661;45.700;4.880;2024-03-02T02:47:31;3.67;;;2.07;;
17091;SDS011;8661;45.700;4.880;2024-03-02T02:50:00;3.83;;;2.10;;
17091;SDS011;8661;45.700;4.880;2024-03-02T02:52:30;3.03;;;2.00;;
17091;SDS011;8661;45.700;4.880;2024-03-02T02:54:59;2.70;;;2.00;;
17091;SDS011;8661;45.700;4.880;2024-03-02T02:57:27;2.80;;;1.90;;
17091;SDS011;8661;45.700;4.880;2024-03-02T02:59:56;3.90;;;2.00;;
17091;SDS011;8661;45.700;4.880;2024-03-02T03:02:23;3.00;;;2.10;;
17091;SDS011;8661;45.700;4.880;2024-03-02T03:04:50;3.97;;;1.90;;
17091;SDS011;8661;45.700;4.880;2024-03-02T03:07:17;2.07;;;1.60;;
17091;SDS011;8661;45.700;4.880;2024-03-02T03:09:44;4.13;;;1.97;;
17091;SDS011;8661;45.700;4.880;2024-03-02T03:12:11;2.33;;;1.67;;
17091;SDS011;8661;45.700;4.880;2024-03-02T03:14:39;2.77;;;1.93;;
17091;SDS011;8661;45.700;4.880;2024-03-02T03:17:07;3.23;;;1.50;;
17091;SDS011;8661;45.700;4.880;2024-03-02T03:19:34;2.53;;;1.83;;
17091;SDS011;8661;45.700;4.880;2024-03-02T03:22:01;3.53;;;1.77;;
17091;SDS011;8661;45.700;4.880;2024-03-02T03:24:28;1.97;;;1.57;;
17091;SDS011;8661;45.700;4.880;2024-03-02T03:26:55;3.23;;;1.87;;
17091;SDS011;8661;45.700;4.880;2024-03-02T03:29:22;2.13;;;1.50;;
17091;SDS011;8661;45.700;4.880;2024-03-02T03:31:50;3.13;;;1.70;;
17091;SDS011;8661;45.700;4.880;2024-03-02T03:34:17;2.63;;;1.50;;
17091;SDS011;8661;45.700;4.880;2024-03-02T03:36:44;3.10;;;1.50;;
17091;SDS011;8661;45.700;4.880;2024-03-02T03:39:11;2.97;;;1.63;;
17091;SDS011;8661;45.700;4.880;2024-03-02T03:41:38;5.93;;;1.80;;
17091;SDS011;8661;45.700;4.880;2024-03-02T03:44:06;2.63;;;1.60;;
17091;SDS011;8661;45.700;4.880;2024-03-02T03:46:33;2.23;;;1.77;;
17091;SDS011;8661;45.700;4.880;2024-03-02T03:49:01;3.43;;;1.80;;
17091;SDS011;8661;45.700;4.880;2024-03-02T03:51:29;2.40;;;1.53;;
17091;SDS011;8661;45.700;4.880;2024-03-02T03:53:56;4.03;;;1.80;;
17091;SDS011;8661;45.700;4.880;2024-03-02T03:56:23;2.67;;;1.70;;
17091;SDS011;8661;45.700;4.880;2024-03-02T03:58:50;2.83;;;1.57;;
17091;SDS011;8661;45.700;4.880;2024-03-02T04:01:17;4.43;;;1.80;;
17091;SDS011;8661;45.700;4.880;2024-03-02T04:03:44;1.67;;;1.40;;
17091;SDS011;8661;45.700;4.880;2024-03-02T04:06:12;2.37;;;1.80;;
17091;SDS011;8661;45.700;4.880;2024-03-02T04:08:41;3.03;;;1.60;;
17091;SDS011;8661;45.700;4.880;2024-03-02T04:11:08;1.67;;;1.53;;
17091;SDS011;8661;45.700;4.880;2024-03-02T04:13:35;4.87;;;1.70;;
17091;SDS011;8661;45.700;4.880;2024-03-02T04:16:02;4.47;;;1.77;;
17091;SDS011;8661;45.700;4.880;2024-03-02T04:18:30;2.27;;;1.50;;
17091;SDS011;8661;45.700;4.880;2024-03-02T04:20:57;3.57;;;2.07;;
17091;SDS011;8661;45.700;4.880;2024-03-02T04:23:25;2.90;;;1.73;;
17091;SDS011;8661;45.700;4.880;2024-03-02T04:25:53;2.67;;;1.60;;
17091;SDS011;8661;45.700;4.880;2024-03-02T04:28:19;2.23;;;1.70;;
17091;SDS011;8661;45.700;4.880;2024-03-02T04:30:46;3.00;;;1.50;;
17091;SDS011;8661;45.700;4.880;2024-03-02T04:33:13;2.70;;;1.63;;
17091;SDS011;8661;45.700;4.880;2024-03-02T04:35:40;2.40;;;1.60;;
17091;SDS011;8661;45.700;4.880;2024-03-02T04:38:07;2.53;;;1.43;;
17091;SDS011;8661;45.700;4.880;2024-03-02T04:40:35;1.87;;;1.47;;
17091;SDS011;8661;45.700;4.880;2024-03-02T04:43:02;2.90;;;1.40;;
17091;SDS011;8661;45.700;4.880;2024-03-02T04:45:29;3.23;;;1.77;;
17091;SDS011;8661;45.700;4.880;2024-03-02T04:47:56;2.40;;;1.73;;
17091;SDS011;8661;45.700;4.880;2024-03-02T04:50:23;3.73;;;1.40;;
17091;SDS011;8661;45.700;4.880;2024-03-02T04:52:50;3.47;;;1.60;;
17091;SDS011;8661;45.700;4.880;2024-03-02T04:55:17;2.43;;;1.30;;
17091;SDS011;8661;45.700;4.880;2024-03-02T04:58:01;2.50;;;1.50;;
17091;SDS011;8661;45.700;4.880;2024-03-02T05:00:28;6.90;;;1.70;;
17091;SDS011;8661;45.700;4.880;2024-03-02T05:02:55;3.17;;;1.50;;
17091;SDS011;8661;45.700;4.880;2024-03-02T05:05:22;2.67;;;1.30;;
17091;SDS011;8661;45.700;4.880;2024-03-02T05:07:49;3.23;;;1.63;;
17091;SDS011;8661;45.700;4.880;2024-03-02T05:10:16;2.70;;;1.33;;
17091;SDS011;8661;45.700;4.880;2024-03-02T05:12:43;2.40;;;1.30;;
17091;SDS011;8661;45.700;4.880;2024-03-02T05:15:25;2.57;;;1.30;;
17091;SDS011;8661;45.700;4.880;2024-03-02T05:17:52;4.03;;;1.30;;
17091;SDS011;8661;45.700;4.880;2024-03-02T05:20:20;2.27;;;1.13;;
17091;SDS011;8661;45.700;4.880;2024-03-02T05:22:47;2.80;;;1.40;;
17091;SDS011;8661;45.700;4.880;2024-03-02T05:25:14;2.53;;;1.40;;
17091;SDS011;8661;45.700;4.880;2024-03-02T05:27:41;2.60;;;1.10;;
17091;SDS011;8661;45.700;4.880;2024-03-02T05:30:09;1.77;;;1.27;;
17091;SDS011;8661;45.700;4.880;2024-03-02T05:32:37;1.77;;;0.97;;
17091;SDS011;8661;45.700;4.880;2024-03-02T05:35:05;3.03;;;1.40;;
17091;SDS011;8661;45.700;4.880;2024-03-02T05:37:33;3.53;;;1.33;;
17091;SDS011;8661;45.700;4.880;2024-03-02T05:40:00;2.73;;;1.20;;
17091;SDS011;8661;45.700;4.880;2024-03-02T05:42:27;2.87;;;1.17;;
17091;SDS011;8661;45.700;4.880;2024-03-02T05:44:54;3.07;;;1.20;;
17091;SDS011;8661;45.700;4.880;2024-03-02T05:47:21;2.87;;;1.10;;
17091;SDS011;8661;45.700;4.880;2024-03-02T05:49:49;1.87;;;1.10;;
17091;SDS011;8661;45.700;4.880;2024-03-02T05:52:16;2.30;;;1.03;;
17091;SDS011;8661;45.700;4.880;2024-03-02T05:54:43;2.57;;;1.27;;
17091;SDS011;8661;45.700;4.880;2024-03-02T05:57:10;3.03;;;1.10;;
17091;SDS011;8661;45.700;4.880;2024-03-02T05:59:57;2.30;;;1.17;;
17091;SDS011;8661;45.700;4.880;2024-03-02T06:02:24;1.70;;;1.10;;
17091;SDS011;8661;45.700;4.880;2024-03-02T06:04:52;1.60;;;1.27;;
17091;SDS011;8661;45.700;4.880;2024-03-02T06:07:21;2.80;;;1.27;;
17091;SDS011;8661;45.700;4.880;2024-03-02T06:09:48;1.73;;;1.30;;
17091;SDS011;8661;45.700;4.880;2024-03-02T06:12:16;2.53;;;1.33;;
17091;SDS011;8661;45.700;4.880;2024-03-02T06:14:44;3.67;;;1.50;;
17091;SDS011;8661;45.700;4.880;2024-03-02T06:17:10;2.07;;;1.60;;
17091;SDS011;8661;45.700;4.880;2024-03-02T06:19:37;3.37;;;1.40;;
17091;SDS011;8661;45.700;4.880;2024-03-02T06:22:06;3.07;;;1.43;;
17091;SDS011;8661;45.700;4.880;2024-03-02T06:24:35;2.17;;;1.30;;
17091;SDS011;8661;45.700;4.880;2024-03-02T06:27:02;4.80;;;1.47;;
17091;SDS011;8661;45.700;4.880;2024-03-02T06:29:30;2.60;;;1.50;;
17091;SDS011;8661;45.700;4.880;2024-03-02T06:31:58;2.40;;;1.20;;
17091;SDS011;8661;45.700;4.880;2024-03-02T06:34:26;3.10;;;1.20;;
17091;SDS011;8661;45.700;4.880;2024-03-02T06:36:53;2.53;;;1.33;;
17091;SDS011;8661;45.700;4.880;2024-03-02T06:39:22;3.07;;;1.40;;
17091;SDS011;8661;45.700;4.880;2024-03-02T06:41:50;3.17;;;1.43;;
17091;SDS011;8661;45.700;4.880;2024-03-02T06:44:17;2.30;;;1.70;;
17091;SDS011;8661;45.700;4.880;2024-03-02T06:46:44;2.97;;;1.37;;
17091;SDS011;8661;45.700;4.880;2024-03-02T06:49:11;1.80;;;1.27;;
17091;SDS011;8661;45.700;4.880;2024-03-02T06:51:38;5.90;;;1.80;;
17091;SDS011;8661;45.700;4.880;2024-03-02T06:54:07;4.43;;;1.30;;
17091;SDS011;8661;45.700;4.880;2024-03-02T06:56:35;3.20;;;1.57;;
17091;SDS011;8661;45.700;4.880;2024-03-02T06:59:03;5.30;;;1.53;;
17091;SDS011;8661;45.700;4.880;2024-03-02T07:01:33;2.97;;;1.70;;
17091;SDS011;8661;45.700;4.880;2024-03-02T07:04:00;4.40;;;1.80;;
17091;SDS011;8661;45.700;4.880;2024-03-02T07:06:27;5.93;;;2.23;;
17091;SDS011;8661;45.700;4.880;2024-03-02T07:08:53;2.40;;;1.87;;
17091;SDS011;8661;45.700;4.880;2024-03-02T07:11:20;3.23;;;1.90;;
17091;SDS011;8661;45.700;4.880;2024-03-02T07:13:48;3.40;;;1.90;;
17091;SDS011;8661;45.700;4.880;2024-03-02T07:16:15;3.83;;;2.20;;
17091;SDS011;8661;45.700;4.880;2024-03-02T07:18:53;3.80;;;2.13;;
17091;SDS011;8661;45.700;4.880;2024-03-02T07:21:21;4.40;;;2.40;;
17091;SDS011;8661;45.700;4.880;2024-03-02T07:23:48;4.43;;;2.17;;
17091;SDS011;8661;45.700;4.880;2024-03-02T07:26:16;6.77;;;2.07;;
17091;SDS011;8661;45.700;4.880;2024-03-02T07:28:44;4.13;;;2.03;;
17091;SDS011;8661;45.700;4.880;2024-03-02T07:31:14;3.17;;;1.77;;
17091;SDS011;8661;45.700;4.880;2024-03-02T07:33:43;3.53;;;1.90;;
17091;SDS011;8661;45.700;4.880;2024-03-02T07:36:10;4.07;;;2.10;;
17091;SDS011;8661;45.700;4.880;2024-03-02T07:38:37;4.27;;;2.10;;
17091;SDS011;8661;45.700;4.880;2024-03-02T07:41:05;5.90;;;1.93;;
17091;SDS011;8661;45.700;4.880;2024-03-02T07:43:32;4.77;;;2.03;;
17091;SDS011;8661;45.700;4.880;2024-03-02T07:45:59;5.67;;;1.80;;
17091;SDS011;8661;45.700;4.880;2024-03-02T07:48:29;4.10;;;2.07;;
17091;SDS011;8661;45.700;4.880;2024-03-02T07:50:57;3.33;;;2.10;;
17091;SDS011;8661;45.700;4.880;2024-03-02T07:53:24;4.27;;;2.10;;
17091;SDS011;8661;45.700;4.880;2024-03-02T07:55:50;4.10;;;2.40;;
17091;SDS011;8661;45.700;4.880;2024-03-02T07:58:17;4.73;;;2.80;;
17091;SDS011;8661;45.700;4.880;2024-03-02T08:00:45;5.33;;;2.73;;
17091;SDS011;8661;45.700;4.880;2024-03-02T08:03:12;6.77;;;2.07;;
17091;SDS011;8661;45.700;4.880;2024-03-02T08:05:41;5.43;;;2.30;;
17091;SDS011;8661;45.700;4.880;2024-03-02T08:08:08;4.83;;;2.50;;
17091;SDS011;8661;45.700;4.880;2024-03-02T08:10:36;8.10;;;3.17;;
17091;SDS011;8661;45.700;4.880;2024-03-02T08:13:03;5.07;;;2.93;;
17091;SDS011;8661;45.700;4.880;2024-03-02T08:15:30;7.67;;;2.83;;
17091;SDS011;8661;45.700;4.880;2024-03-02T08:17:57;5.60;;;2.60;;
17091;SDS011;8661;45.700;4.880;2024-03-02T08:20:24;5.70;;;2.53;;
17091;SDS011;8661;45.700;4.880;2024-03-02T08:22:53;3.50;;;2.10;;
17091;SDS011;8661;45.700;4.880;2024-03-02T08:25:20;5.20;;;2.10;;
17091;SDS011;8661;45.700;4.880;2024-03-02T08:27:47;3.73;;;1.80;;
17091;SDS011;8661;45.700;4.880;2024-03-02T08:30:14;4.20;;;2.20;;
17091;SDS011;8661;45.700;4.880;2024-03-02T08:32:43;4.23;;;1.40;;
17091;SDS011;8661;45.700;4.880;2024-03-02T08:35:10;2.03;;;1.40;;
17091;SDS011;8661;45.700;4.880;2024-03-02T08:37:37;3.33;;;1.70;;
17091;SDS011;8661;45.700;4.880;2024-03-02T08:40:08;3.23;;;1.70;;
17091;SDS011;8661;45.700;4.880;2024-03-02T08:42:35;4.97;;;1.77;;
17091;SDS011;8661;45.700;4.880;2024-03-02T08:45:02;2.50;;;1.60;;
17091;SDS011;8661;45.700;4.880;2024-03-02T08:47:30;3.37;;;1.60;;
17091;SDS011;8661;45.700;4.880;2024-03-02T08:49:57;5.20;;;1.53;;
17091;SDS011;8661;45.700;4.880;2024-03-02T08:52:24;4.97;;;2.30;;
17091;SDS011;8661;45.700;4.880;2024-03-02T08:54:51;4.93;;;1.80;;
17091;SDS011;8661;45.700;4.880;2024-03-02T08:57:19;4.77;;;2.00;;
17091;SDS011;8661;45.700;4.880;2024-03-02T08:59:46;2.87;;;1.80;;
17091;SDS011;8661;45.700;4.880;2024-03-02T09:02:13;4.53;;;1.97;;
17091;SDS011;8661;45.700;4.880;2024-03-02T09:04:40;6.77;;;1.80;;
17091;SDS011;8661;45.700;4.880;2024-03-02T09:07:07;3.33;;;1.80;;
17091;SDS011;8661;45.700;4.880;2024-03-02T09:09:33;5.17;;;1.87;;
17091;SDS011;8661;45.700;4.880;2024-03-02T09:12:00;4.07;;;1.80;;
17091;SDS011;8661;45.700;4.880;2024-03-02T09:14:28;4.60;;;1.80;;
17091;SDS011;8661;45.700;4.880;2024-03-02T09:16:55;6.23;;;1.97;;
17091;SDS011;8661;45.700;4.880;2024-03-02T09:19:22;2.67;;;1.67;;
17091;SDS011;8661;45.700;4.880;2024-03-02T09:21:49;3.97;;;1.63;;
17091;SDS011;8661;45.700;4.880;2024-03-02T09:24:16;2.03;;;1.27;;
17091;SDS011;8661;45.700;4.880;2024-03-02T09:26:43;4.30;;;1.70;;
17091;SDS011;8661;45.700;4.880;2024-03-02T09:29:10;4.70;;;1.63;;
17091;SDS011;8661;45.700;4.880;2024-03-02T09:31:40;5.67;;;1.53;;
17091;SDS011;8661;45.700;4.880;2024-03-02T09:34:07;4.37;;;1.30;;
17091;SDS011;8661;45.700;4.880;2024-03-02T09:36:34;7.97;;;1.60;;
17091;SDS011;8661;45.700;4.880;2024-03-02T09:39:01;3.20;;;1.40;;
17091;SDS011;8661;45.700;4.880;2024-03-02T09:41:29;3.67;;;1.50;;
17091;SDS011;8661;45.700;4.880;2024-03-02T09:43:56;5.03;;;1.27;;
17091;SDS011;8661;45.700;4.880;2024-03-02T09:46:23;6.77;;;1.90;;
17091;SDS011;8661;45.700;4.880;2024-03-02T09:48:52;2.53;;;1.47;;
17091;SDS011;8661;45.700;4.880;2024-03-02T09:51:19;3.93;;;1.60;;
17091;SDS011;8661;45.700;4.880;2024-03-02T09:53:46;3.93;;;1.60;;
17091;SDS011;8661;45.700;4.880;2024-03-02T09:56:13;4.43;;;1.60;;
17091;SDS011;8661;45.700;4.880;2024-03-02T09:58:43;6.20;;;1.70;;
17091;SDS011;8661;45.700;4.880;2024-03-02T10:01:10;3.13;;;1.60;;
17091;SDS011;8661;45.700;4.880;2024-03-02T10:03:37;3.87;;;1.40;;
17091;SDS011;8661;45.700;4.880;2024-03-02T10:06:22;6.07;;;1.53;;
17091;SDS011;8661;45.700;4.880;2024-03-02T10:08:50;2.50;;;1.70;;
17091;SDS011;8661;45.700;4.880;2024-03-02T10:11:27;2.93;;;1.30;;
17091;SDS011;8661;45.700;4.880;2024-03-02T10:14:05;2.20;;;1.30;;
17091;SDS011;8661;45.700;4.880;2024-03-02T10:16:36;3.23;;;1.50;;
17091;SDS011;8661;45.700;4.880;2024-03-02T10:21:53;4.77;;;1.80;;
17091;SDS011;8661;45.700;4.880;2024-03-02T10:24:21;3.30;;;1.57;;
17091;SDS011;8661;45.700;4.880;2024-03-02T10:26:49;9.03;;;2.13;;
17091;SDS011;8661;45.700;4.880;2024-03-02T10:29:16;7.43;;;1.63;;
17091;SDS011;8661;45.700;4.880;2024-03-02T10:31:44;7.47;;;1.73;;
17091;SDS011;8661;45.700;4.880;2024-03-02T10:34:12;3.87;;;1.70;;
17091;SDS011;8661;45.700;4.880;2024-03-02T10:36:41;3.60;;;1.80;;
17091;SDS011;8661;45.700;4.880;2024-03-02T10:39:10;6.07;;;1.73;;
17091;SDS011;8661;45.700;4.880;2024-03-02T10:41:40;5.17;;;1.47;;
17091;SDS011;8661;45.700;4.880;2024-03-02T10:44:08;4.40;;;1.57;;
17091;SDS011;8661;45.700;4.880;2024-03-02T10:46:35;6.23;;;1.80;;
17091;SDS011;8661;45.700;4.880;2024-03-02T10:49:04;4.77;;;1.47;;
17091;SDS011;8661;45.700;4.880;2024-03-02T10:51:32;5.03;;;1.53;;
17091;SDS011;8661;45.700;4.880;2024-03-02T10:54:01;4.07;;;1.60;;
17091;SDS011;8661;45.700;4.880;2024-03-02T10:56:31;8.00;;;1.70;;
17091;SDS011;8661;45.700;4.880;2024-03-02T10:59:02;4.87;;;1.67;;
17091;SDS011;8661;45.700;4.880;2024-03-02T11:01:31;5.60;;;1.50;;
17091;SDS011;8661;45.700;4.880;2024-03-02T11:03:59;5.27;;;1.63;;
17091;SDS011;8661;45.700;4.880;2024-03-02T11:06:28;4.43;;;1.50;;
17091;SDS011;8661;45.700;4.880;2024-03-02T11:08:58;3.30;;;1.33;;
17091;SDS011;8661;45.700;4.880;2024-03-02T11:11:36;2.23;;;1.30;;
17091;SDS011;8661;45.700;4.880;2024-03-02T11:14:06;1.80;;;0.90;;
17091;SDS011;8661;45.700;4.880;2024-03-02T11:16:37;4.10;;;1.40;;
17091;SDS011;8661;45.700;4.880;2024-03-02T11:19:07;2.90;;;1.20;;
17091;SDS011;8661;45.700;4.880;2024-03-02T11:21:37;3.70;;;1.03;;
17091;SDS011;8661;45.700;4.880;2024-03-02T11:27:00;1.47;;;1.00;;
17091;SDS011;8661;45.700;4.880;2024-03-02T11:29:43;3.50;;;1.10;;
17091;SDS011;8661;45.700;4.880;2024-03-02T11:32:14;4.33;;;1.00;;
17091;SDS011;8661;45.700;4.880;2024-03-02T11:34:43;1.70;;;0.97;;
17091;SDS011;8661;45.700;4.880;2024-03-02T11:37:12;4.57;;;1.40;;
17091;SDS011;8661;45.700;4.880;2024-03-02T11:39:40;2.60;;;1.07;;
17091;SDS011;8661;45.700;4.880;2024-03-02T11:42:08;2.23;;;0.90;;
17091;SDS011;8661;45.700;4.880;2024-03-02T11:44:35;2.10;;;0.97;;
17091;SDS011;8661;45.700;4.880;2024-03-02T11:47:05;4.73;;;0.93;;
17091;SDS011;8661;45.700;4.880;2024-03-02T11:49:36;1.87;;;1.00;;
17091;SDS011;8661;45.700;4.880;2024-03-02T11:52:05;1.87;;;0.77;;
17091;SDS011;8661;45.700;4.880;2024-03-02T11:54:33;1.57;;;1.00;;
17091;SDS011;8661;45.700;4.880;2024-03-02T11:57:01;1.23;;;0.80;;
17091;SDS011;8661;45.700;4.880;2024-03-02T11:59:30;2.37;;;1.27;;
17091;SDS011;8661;45.700;4.880;2024-03-02T12:01:57;2.13;;;0.80;;
17091;SDS011;8661;45.700;4.880;2024-03-02T12:04:25;1.10;;;0.73;;
17091;SDS011;8661;45.700;4.880;2024-03-02T12:06:56;1.57;;;1.03;;
17091;SDS011;8661;45.700;4.880;2024-03-02T12:09:25;2.03;;;0.90;;
17091;SDS011;8661;45.700;4.880;2024-03-02T12:12:02;1.47;;;0.70;;
17091;SDS011;8661;45.700;4.880;2024-03-02T12:14:32;0.83;;;0.70;;
17091;SDS011;8661;45.700;4.880;2024-03-02T12:17:00;1.57;;;0.90;;
17091;SDS011;8661;45.700;4.880;2024-03-02T12:19:27;1.33;;;0.90;;
17091;SDS011;8661;45.700;4.880;2024-03-02T12:21:55;1.00;;;0.70;;
17091;SDS011;8661;45.700;4.880;2024-03-02T12:24:23;1.03;;;0.70;;
17091;SDS011;8661;45.700;4.880;2024-03-02T12:26:50;2.20;;;1.37;;
17091;SDS011;8661;45.700;4.880;2024-03-02T12:29:18;2.50;;;1.63;;
17091;SDS011;8661;45.700;4.880;2024-03-02T12:31:48;1.63;;;1.10;;
17091;SDS011;8661;45.700;4.880;2024-03-02T12:34:17;2.10;;;0.80;;
17091;SDS011;8661;45.700;4.880;2024-03-02T12:36:45;1.37;;;0.90;;
17091;SDS011;8661;45.700;4.880;2024-03-02T12:39:15;1.10;;;0.70;;
17091;SDS011;8661;45.700;4.880;2024-03-02T12:41:42;3.20;;;1.00;;
17091;SDS011;8661;45.700;4.880;2024-03-02T12:44:09;1.53;;;0.80;;
17091;SDS011;8661;45.700;4.880;2024-03-02T12:46:36;1.10;;;0.80;;
17091;SDS011;8661;45.700;4.880;2024-03-02T12:49:07;1.57;;;0.70;;
17091;SDS011;8661;45.700;4.880;2024-03-02T12:51:36;0.83;;;0.77;;
17091;SDS011;8661;45.700;4.880;2024-03-02T12:54:04;2.70;;;0.80;;
17091;SDS011;8661;45.700;4.880;2024-03-02T12:56:31;1.63;;;1.00;;
17091;SDS011;8661;45.700;4.880;2024-03-02T12:58:59;0.90;;;0.77;;
17091;SDS011;8661;45.700;4.880;2024-03-02T13:01:26;1.13;;;0.80;;
17091;SDS011;8661;45.700;4.880;2024-03-02T13:03:53;3.23;;;0.97;;
17091;SDS011;8661;45.700;4.880;2024-03-02T13:06:24;3.60;;;1.10;;
17091;SDS011;8661;45.700;4.880;2024-03-02T13:08:53;3.23;;;1.20;;
17091;SDS011;8661;45.700;4.880;2024-03-02T13:11:20;1.33;;;1.00;;
17091;SDS011;8661;45.700;4.880;2024-03-02T13:13:48;4.13;;;1.20;;
17091;SDS011;8661;45.700;4.880;2024-03-02T13:16:16;3.87;;;1.00;;
17091;SDS011;8661;45.700;4.880;2024-03-02T13:18:45;2.00;;;1.00;;
17091;SDS011;8661;45.700;4.880;2024-03-02T13:21:12;1.67;;;1.10;;
17091;SDS011;8661;45.700;4.880;2024-03-02T13:23:41;2.93;;;1.00;;
17091;SDS011;8661;45.700;4.880;2024-03-02T13:26:08;1.23;;;1.00;;
17091;SDS011;8661;45.700;4.880;2024-03-02T13:28:37;3.27;;;1.00;;
17091;SDS011;8661;45.700;4.880;2024-03-02T13:31:04;2.70;;;1.13;;
17091;SDS011;8661;45.700;4.880;2024-03-02T13:33:32;1.60;;;1.13;;
17091;SDS011;8661;45.700;4.880;2024-03-02T13:35:59;2.10;;;1.10;;
17091;SDS011;8661;45.700;4.880;2024-03-02T13:38:26;1.90;;;1.00;;
17091;SDS011;8661;45.700;4.880;2024-03-02T13:40:57;2.13;;;1.20;;
17091;SDS011;8661;45.700;4.880;2024-03-02T13:43:25;4.00;;;1.20;;
17091;SDS011;8661;45.700;4.880;2024-03-02T13:45:53;2.30;;;1.10;;
17091;SDS011;8661;45.700;4.880;2024-03-02T13:48:20;2.33;;;1.20;;
17091;SDS011;8661;45.700;4.880;2024-03-02T13:50:47;3.83;;;1.10;;
17091;SDS011;8661;45.700;4.880;2024-03-02T13:53:14;2.13;;;1.20;;
17091;SDS011;8661;45.700;4.880;2024-03-02T13:55:41;2.00;;;1.30;;
17091;SDS011;8661;45.700;4.880;2024-03-02T13:58:10;4.10;;;1.40;;
17091;SDS011;8661;45.700;4.880;2024-03-02T14:00:37;3.20;;;1.20;;
17091;SDS011;8661;45.700;4.880;2024-03-02T14:03:05;3.53;;;1.30;;
17091;SDS011;8661;45.700;4.880;2024-03-02T14:05:33;2.77;;;1.30;;
17091;SDS011;8661;45.700;4.880;2024-03-02T14:08:00;1.97;;;1.17;;
17091;SDS011;8661;45.700;4.880;2024-03-02T14:10:27;2.60;;;1.10;;
17091;SDS011;8661;45.700;4.880;2024-03-02T14:12:54;3.10;;;1.23;;
17091;SDS011;8661;45.700;4.880;2024-03-02T14:15:23;1.87;;;1.20;;
17091;SDS011;8661;45.700;4.880;2024-03-02T14:17:50;2.30;;;1.37;;
17091;SDS011;8661;45.700;4.880;2024-03-02T14:20:17;4.20;;;1.30;;
17091;SDS011;8661;45.700;4.880;2024-03-02T14:22:47;4.53;;;1.80;;
17091;SDS011;8661;45.700;4.880;2024-03-02T14:25:14;3.30;;;1.37;;
17091;SDS011;8661;45.700;4.880;2024-03-02T14:27:42;2.47;;;1.40;;
17091;SDS011;8661;45.700;4.880;2024-03-02T14:30:12;3.43;;;1.30;;
17091;SDS011;8661;45.700;4.880;2024-03-02T14:32:40;2.03;;;1.40;;
17091;SDS011;8661;45.700;4.880;2024-03-02T14:35:07;4.63;;;1.63;;
17091;SDS011;8661;45.700;4.880;2024-03-02T14:37:36;3.37;;;1.63;;
17091;SDS011;8661;45.700;4.880;2024-03-02T14:40:04;3.60;;;1.30;;
17091;SDS011;8661;45.700;4.880;2024-03-02T14:42:33;3.27;;;1.40;;
17091;SDS011;8661;45.700;4.880;2024-03-02T14:45:00;2.97;;;1.37;;
17091;SDS011;8661;45.700;4.880;2024-03-02T14:47:29;6.40;;;1.93;;
17091;SDS011;8661;45.700;4.880;2024-03-02T14:50:01;4.40;;;1.60;;
17091;SDS011;8661;45.700;4.880;2024-03-02T14:52:31;3.97;;;1.20;;
17091;SDS011;8661;45.700;4.880;2024-03-02T14:54:58;5.53;;;1.50;;
17091;SDS011;8661;45.700;4.880;2024-03-02T14:57:25;4.03;;;1.10;;
17091;SDS011;8661;45.700;4.880;2024-03-02T14:59:52;4.53;;;1.20;;
17091;SDS011;8661;45.700;4.880;2024-03-02T15:02:19;4.80;;;1.20;;
17091;SDS011;8661;45.700;4.880;2024-03-02T15:04:46;3.67;;;1.37;;
17091;SDS011;8661;45.700;4.880;2024-03-02T15:07:15;2.67;;;1.03;;
17091;SDS011;8661;45.700;4.880;2024-03-02T15:09:42;4.43;;;1.53;;
17091;SDS011;8661;45.700;4.880;2024-03-02T15:12:09;1.67;;;1.07;;
17091;SDS011;8661;45.700;4.880;2024-03-02T15:14:38;7.97;;;1.60;;